Time;durP1;ratioP1;P1;durP2;ratioP2;P2;SDS_P1;SDS_P2;PMS_P1;PMS_P2;Temp;Humidity;BMP_temperature;BMP_pressure;BME280_temperature;BME280_humidity;BME280_pressure;Samples;Min_cycle;Max_cycle;Signal;HPM_P1;HPM_P2
2022/01/27 00:18:40;;;;;;;16.42;6.10;;;;;;;;;;20831658;28;20449;-62
2022/01/27 00:28:42;;;;;;;9.88;5.00;;;;;;;;;;20831392;28;20053;-61
2022/01/27 00:38:45;;;;;;;9.68;5.70;;;;;;;;;;20832263;28;20058;-60
2022/01/27 00:48:50;;;;;;;11.98;4.95;;;;;;;;;;20831224;28;20052;-60
2022/01/27 01:30:19;;;;;;;9.90;5.53;;;;;;;;;;20847470;28;20554;-60
2022/01/27 01:40:17;;;;;;;8.05;5.47;;;;;;;;;;20846325;28;20076;-60
2022/01/27 01:50:21;;;;;;;11.52;4.78;;;;;;;;;;20847070;28;20107;-59
2022/01/27 02:00:23;;;;;;;9.98;5.03;;;;;;;;;;20844398;28;20045;-60
2022/01/27 02:10:41;;;;;;;8.68;4.70;;;;;;;;;;20843927;28;20410;-61
2022/01/27 02:20:42;;;;;;;9.30;4.65;;;;;;;;;;20841043;28;20049;-60
2022/01/27 02:30:46;;;;;;;7.50;4.53;;;;;;;;;;20840034;28;20469;-60
2022/01/27 02:40:53;;;;;;;9.80;4.65;;;;;;;;;;20847068;28;20139;-59
2022/01/27 02:50:57;;;;;;;8.52;4.25;;;;;;;;;;20851083;28;20367;-61
2022/01/27 03:01:00;;;;;;;9.77;4.63;;;;;;;;;;20857495;28;20053;-64
2022/01/27 03:11:07;;;;;;;8.10;4.07;;;;;;;;;;20862336;28;20053;-76
2022/01/27 03:21:17;;;;;;;8.80;4.03;;;;;;;;;;20887360;28;20115;-61
2022/01/27 03:31:20;;;;;;;7.20;4.25;;;;;;;;;;20862006;28;20045;-59
2022/01/27 03:41:23;;;;;;;5.55;3.92;;;;;;;;;;20840041;28;20057;-60
2022/01/27 03:51:27;;;;;;;10.73;3.97;;;;;;;;;;20839132;28;20045;-60
2022/01/27 04:01:31;;;;;;;7.35;3.78;;;;;;;;;;20837887;28;20520;-61
2022/01/27 04:11:35;;;;;;;8.50;3.75;;;;;;;;;;20834803;28;20132;-59
2022/01/27 04:21:39;;;;;;;7.18;4.35;;;;;;;;;;20841602;28;20093;-60
2022/01/27 04:31:43;;;;;;;6.13;3.88;;;;;;;;;;20833004;28;20049;-60
2022/01/27 04:51:53;;;;;;;6.40;3.63;;;;;;;;;;20831787;28;20077;-60
2022/01/27 05:02:03;;;;;;;6.75;4.32;;;;;;;;;;20831983;28;20057;-60
2022/01/27 05:12:12;;;;;;;9.25;4.65;;;;;;;;;;20833237;28;20064;-64
2022/01/27 05:22:15;;;;;;;7.85;3.90;;;;;;;;;;20832934;28;20084;-60
2022/01/27 05:32:18;;;;;;;8.60;4.88;;;;;;;;;;20842345;28;20048;-62
2022/01/27 05:42:21;;;;;;;7.53;4.30;;;;;;;;;;20836165;28;20408;-62
2022/01/27 05:52:25;;;;;;;12.00;4.88;;;;;;;;;;20846996;28;20049;-62
2022/01/27 06:02:29;;;;;;;7.70;4.65;;;;;;;;;;20845496;28;20433;-61
2022/01/27 06:12:35;;;;;;;;;;;;;;;;;;20902960;28;20049;-64
2022/01/27 06:22:43;;;;;;;8.93;4.38;;;;;;;;;;20865956;28;19988;-62
2022/01/27 06:32:46;;;;;;;8.50;4.10;;;;;;;;;;20858150;28;20112;-61
2022/01/27 06:42:48;;;;;;;8.27;4.72;;;;;;;;;;20843544;28;20077;-62
2022/01/27 06:52:51;;;;;;;9.20;5.32;;;;;;;;;;20841416;28;20107;-61
2022/01/27 07:02:55;;;;;;;9.40;5.07;;;;;;;;;;20842861;28;20052;-61
2022/01/27 07:12:59;;;;;;;7.35;4.60;;;;;;;;;;20842082;28;20045;-61
2022/01/27 07:23:02;;;;;;;13.05;5.22;;;;;;;;;;20839682;28;20056;-61
2022/01/27 07:33:04;;;;;;;10.88;5.30;;;;;;;;;;20838922;28;20053;-63
2022/01/27 07:43:11;;;;;;;13.10;6.82;;;;;;;;;;20837952;28;20049;-61
2022/01/27 07:53:13;;;;;;;12.88;5.53;;;;;;;;;;20838212;28;20056;-60
2022/01/27 08:03:15;;;;;;;16.17;6.25;;;;;;;;;;20841637;28;20057;-67
2022/01/27 08:13:17;;;;;;;13.23;6.20;;;;;;;;;;20847208;28;20409;-62
2022/01/27 08:23:20;;;;;;;17.95;6.03;;;;;;;;;;20844214;28;20053;-64
2022/01/27 08:33:29;;;;;;;14.55;5.57;;;;;;;;;;20841144;28;20053;-61
2022/01/27 08:43:31;;;;;;;11.73;5.28;;;;;;;;;;20835832;28;20505;-61
2022/01/27 08:53:36;;;;;;;28.83;7.50;;;;;;;;;;20836022;28;20437;-61
2022/01/27 09:03:40;;;;;;;17.13;7.80;;;;;;;;;;20846845;28;20131;-60
2022/01/27 09:13:48;;;;;;;20.45;7.75;;;;;;;;;;20840603;28;20129;-62
2022/01/27 09:23:54;;;;;;;12.13;6.50;;;;;;;;;;20847120;28;20136;-62
2022/01/27 09:33:56;;;;;;;16.77;6.28;;;;;;;;;;20846128;28;20049;-61
2022/01/27 09:44:01;;;;;;;12.32;6.72;;;;;;;;;;20843891;28;20057;-62
2022/01/27 09:54:03;;;;;;;16.48;7.05;;;;;;;;;;20842966;28;20504;-59
2022/01/27 10:04:06;;;;;;;14.82;7.03;;;;;;;;;;20840909;28;20057;-61
2022/01/27 10:14:18;;;;;;;11.32;6.50;;;;;;;;;;20840782;28;20145;-60
2022/01/27 10:24:25;;;;;;;14.48;5.10;;;;;;;;;;20839629;28;20076;-61
2022/01/27 10:34:27;;;;;;;11.63;4.03;;;;;;;;;;20838427;28;20056;-62
2022/01/27 10:44:45;;;;;;;15.52;4.60;;;;;;;;;;20838271;28;20060;-60
2022/01/27 10:54:55;;;;;;;6.50;3.72;;;;;;;;;;20836524;28;20053;-59
2022/01/27 11:04:57;;;;;;;9.15;3.38;;;;;;;;;;20807722;28;20057;-63
2022/01/27 11:15:00;;;;;;;7.63;3.60;;;;;;;;;;20799573;28;20049;-60
2022/01/27 11:35:22;;;;;;;12.17;4.20;;;;;;;;;;20764536;28;20053;-62
2022/01/27 11:45:27;;;;;;;6.43;3.70;;;;;;;;;;20805034;28;20052;-61
2022/01/27 11:55:29;;;;;;;11.38;4.28;;;;;;;;;;20830963;28;20049;-61
2022/01/27 12:05:31;;;;;;;9.25;3.70;;;;;;;;;;20831189;28;20494;-57
2022/01/27 12:15:33;;;;;;;17.50;3.65;;;;;;;;;;20827836;28;20060;-62
2022/01/27 12:25:46;;;;;;;12.20;3.85;;;;;;;;;;20778701;28;20053;-63
2022/01/27 12:35:54;;;;;;;9.07;3.83;;;;;;;;;;20828414;28;20056;-58
2022/01/27 12:45:59;;;;;;;10.70;3.13;;;;;;;;;;20826378;28;20420;-63
2022/01/27 12:56:07;;;;;;;7.68;3.13;;;;;;;;;;20839886;28;20053;-51
2022/01/27 13:06:09;;;;;;;7.70;2.35;;;;;;;;;;20846588;28;20053;-53
2022/01/27 13:16:18;;;;;;;18.30;3.65;;;;;;;;;;20848633;28;20057;-58
2022/01/27 13:26:21;;;;;;;6.13;2.90;;;;;;;;;;20850631;28;20072;-60
2022/01/27 13:36:24;;;;;;;4.47;2.05;;;;;;;;;;20841692;28;20079;-60
2022/01/27 13:46:33;;;;;;;7.60;2.43;;;;;;;;;;20841844;28;20052;-65
2022/01/27 13:56:41;;;;;;;5.45;2.42;;;;;;;;;;20841017;28;20060;-63
2022/01/27 14:06:47;;;;;;;3.67;1.70;;;;;;;;;;20840021;28;20045;-57
2022/01/27 14:16:49;;;;;;;5.35;2.10;;;;;;;;;;20839371;28;20413;-60
2022/01/27 14:26:58;;;;;;;4.50;2.40;;;;;;;;;;20838644;28;20046;-60
2022/01/27 14:37:00;;;;;;;4.50;1.50;;;;;;;;;;20838123;28;20315;-59
2022/01/27 14:47:04;;;;;;;3.15;1.52;;;;;;;;;;20837774;28;20052;-64
2022/01/27 14:57:08;;;;;;;6.15;1.55;;;;;;;;;;20836824;28;20091;-64
2022/01/27 15:07:10;;;;;;;7.88;2.15;;;;;;;;;;20835576;28;20049;-62
2022/01/27 15:27:32;;;;;;;8.38;1.65;;;;;;;;;;20834355;28;20057;-59
2022/01/27 15:37:35;;;;;;;4.45;1.70;;;;;;;;;;20833402;28;20053;-59
2022/01/27 15:47:37;;;;;;;8.77;2.75;;;;;;;;;;20832549;28;20417;-61
2022/01/27 15:57:39;;;;;;;4.38;2.00;;;;;;;;;;20832612;28;20053;-59
2022/01/27 16:07:41;;;;;;;5.85;2.00;;;;;;;;;;20831228;28;20053;-62
2022/01/27 16:17:43;;;;;;;6.75;1.70;;;;;;;;;;20830258;28;20061;-62
2022/01/27 16:27:45;;;;;;;7.45;1.90;;;;;;;;;;20829797;28;20080;-61
2022/01/27 16:37:49;;;;;;;6.15;2.00;;;;;;;;;;20829718;28;20508;-63
2022/01/27 16:47:51;;;;;;;5.60;2.20;;;;;;;;;;20828755;28;20095;-63
2022/01/27 16:57:53;;;;;;;8.90;2.28;;;;;;;;;;20834295;28;20140;-63
2022/01/27 17:07:55;;;;;;;2.85;1.98;;;;;;;;;;20828952;28;20110;-66
2022/01/27 17:17:57;;;;;;;8.48;4.78;;;;;;;;;;20824849;28;20061;-68
2022/01/27 17:27:59;;;;;;;10.20;3.38;;;;;;;;;;20784600;28;20497;-68
2022/01/27 17:38:01;;;;;;;9.38;4.93;;;;;;;;;;20801743;28;20049;-69
2022/01/27 17:48:04;;;;;;;9.02;5.00;;;;;;;;;;20798892;28;20095;-67
2022/01/27 17:58:07;;;;;;;9.82;5.38;;;;;;;;;;20798185;28;20176;-66
2022/01/27 18:08:09;;;;;;;10.57;6.35;;;;;;;;;;20797900;28;20486;-70
2022/01/27 18:18:12;;;;;;;18.98;9.38;;;;;;;;;;20787050;28;20143;-65
2022/01/27 18:28:14;;;;;;;10.98;5.55;;;;;;;;;;20757456;28;20507;-68
2022/01/27 18:38:16;;;;;;;12.85;5.85;;;;;;;;;;20756923;28;20050;-58
2022/01/27 18:48:18;;;;;;;11.80;4.50;;;;;;;;;;20760036;28;20050;-59
2022/01/27 18:58:20;;;;;;;12.32;3.53;;;;;;;;;;20779481;28;20137;-71
2022/01/27 19:08:22;;;;;;;9.80;4.30;;;;;;;;;;20755877;28;20049;-69
2022/01/27 19:18:24;;;;;;;17.42;6.55;;;;;;;;;;20753295;28;20057;-71
2022/01/27 19:28:27;;;;;;;11.43;4.07;;;;;;;;;;20753512;28;20071;-68
2022/01/27 19:38:28;;;;;;;5.53;3.28;;;;;;;;;;20752910;28;20049;-61
2022/01/27 19:48:33;;;;;;;7.40;4.15;;;;;;;;;;20752274;28;20049;-65
2022/01/27 19:58:34;;;;;;;8.38;3.15;;;;;;;;;;20752254;28;20049;-74
2022/01/27 20:08:36;;;;;;;8.50;3.90;;;;;;;;;;20751472;28;20057;-67
2022/01/27 20:18:38;;;;;;;7.68;3.30;;;;;;;;;;20762301;28;20069;-72
2022/01/27 20:28:40;;;;;;;6.55;3.50;;;;;;;;;;20753884;28;20399;-73
2022/01/27 20:38:43;;;;;;;7.70;3.45;;;;;;;;;;20749812;28;20050;-71
2022/01/27 20:48:46;;;;;;;8.98;3.30;;;;;;;;;;20748412;28;20481;-65
2022/01/27 20:58:49;;;;;;;7.70;3.28;;;;;;;;;;20747641;28;20046;-66
2022/01/27 21:08:51;;;;;;;14.13;4.10;;;;;;;;;;20747117;28;20049;-65
2022/01/27 21:18:53;;;;;;;12.23;4.53;;;;;;;;;;20760783;28;20061;-65
2022/01/27 21:28:55;;;;;;;16.88;6.30;;;;;;;;;;20762796;28;20054;-66
2022/01/27 21:38:57;;;;;;;10.45;5.13;;;;;;;;;;20762623;28;20165;-64
2022/01/27 21:48:59;;;;;;;11.02;4.57;;;;;;;;;;20761054;28;20383;-64
2022/01/27 21:59:01;;;;;;;14.77;5.35;;;;;;;;;;20760379;28;20053;-67
2022/01/27 22:09:03;;;;;;;11.82;5.00;;;;;;;;;;20759367;28;20050;-65
2022/01/27 22:19:05;;;;;;;13.00;5.35;;;;;;;;;;20758416;28;20145;-64
2022/01/27 22:29:08;;;;;;;24.00;12.57;;;;;;;;;;20757705;28;20053;-63
2022/01/27 22:39:10;;;;;;;14.18;7.10;;;;;;;;;;20756963;28;20053;-64
2022/01/27 22:49:12;;;;;;;17.20;6.72;;;;;;;;;;20756882;28;20046;-64
2022/01/27 22:59:14;;;;;;;14.48;6.60;;;;;;;;;;20758953;28;20081;-61
2022/01/27 23:09:21;;;;;;;11.57;5.57;;;;;;;;;;20755644;28;20050;-62
2022/01/27 23:29:47;;;;;;;13.07;5.45;;;;;;;;;;20755167;28;20405;-64
2022/01/27 23:50:42;;;;;;;12.15;5.43;;;;;;;;;;20744928;28;20042;-62
